createdAt,value
2023-05-07T00:01:21.822Z,4.00
2023-05-07T00:03:50.887Z,6.70
2023-05-07T00:06:20.085Z,4.80
2023-05-07T00:08:48.833Z,3.60
2023-05-07T00:11:15.430Z,5.90
2023-05-07T00:13:41.901Z,4.40
2023-05-07T00:16:10.883Z,5.50
2023-05-07T00:18:40.209Z,3.30
2023-05-07T00:21:09.086Z,8.30
2023-05-07T00:23:35.706Z,3.90
2023-05-07T00:26:02.206Z,3.40
2023-05-07T00:28:28.653Z,4.30
2023-05-07T00:30:57.598Z,3.30
2023-05-07T00:33:27.070Z,5.30
2023-05-07T00:35:56.226Z,4.10
2023-05-07T00:38:22.678Z,6.20
2023-05-07T00:40:49.362Z,4.20
2023-05-07T00:43:16.473Z,5.80
2023-05-07T00:45:43.084Z,4.80
2023-05-07T00:48:18.771Z,8.30
2023-05-07T00:50:46.181Z,5.80
2023-05-07T00:53:13.239Z,4.70
2023-05-07T00:55:40.008Z,3.90
2023-05-07T00:58:07.183Z,8.50
2023-05-07T01:00:38.961Z,4.20
2023-05-07T01:03:08.256Z,4.70
2023-05-07T01:05:37.794Z,5.50
2023-05-07T01:08:05.639Z,4.90
2023-05-07T05:37:36.530Z,3.90
2023-05-07T05:40:09.009Z,3.40
2023-05-07T05:42:41.932Z,4.90
2023-05-07T05:45:10.616Z,5.00
2023-05-07T05:47:47.740Z,3.20
2023-05-07T05:50:16.840Z,3.70
2023-05-07T05:52:46.975Z,4.60
2023-05-07T05:55:15.894Z,4.40
2023-05-07T05:57:42.434Z,5.40
2023-05-07T06:00:12.313Z,4.40
2023-05-07T06:02:47.936Z,5.80
2023-05-07T06:05:19.063Z,4.40
2023-05-07T06:07:46.168Z,3.90
2023-05-07T06:10:13.188Z,5.40
2023-05-07T06:12:42.316Z,8.70
2023-05-07T06:15:11.743Z,5.30
2023-05-07T06:17:38.767Z,5.00
2023-05-07T06:20:13.016Z,6.90
2023-05-07T06:22:43.376Z,3.80
2023-05-07T06:25:15.424Z,4.70
2023-05-07T06:30:11.554Z,4.90
2023-05-07T06:32:38.543Z,5.10
2023-05-07T06:35:05.768Z,3.20
2023-05-07T06:37:38.766Z,5.70
2023-05-07T06:40:07.793Z,5.50
2023-05-07T06:42:41.137Z,4.20
2023-05-07T06:45:26.831Z,3.60
2023-05-07T06:48:00.965Z,4.80
2023-05-07T06:50:29.050Z,4.10
2023-05-07T06:52:57.539Z,5.30
2023-05-07T06:55:24.020Z,5.50
2023-05-07T06:57:50.819Z,5.80
2023-05-07T07:00:19.164Z,5.40
2023-05-07T07:02:50.504Z,4.80
2023-05-07T07:05:23.570Z,5.20
2023-05-07T07:07:53.066Z,7.30
2023-05-07T07:10:20.671Z,6.00
2023-05-07T07:12:50.915Z,11.50
2023-05-07T07:15:17.691Z,6.50
2023-05-07T07:17:48.522Z,6.20
2023-05-07T07:20:15.417Z,6.20
2023-05-07T07:22:43.296Z,4.10
2023-05-07T07:25:13.441Z,3.60
2023-05-07T07:27:44.932Z,4.80
2023-05-07T07:30:12.844Z,3.80
2023-05-07T07:32:43.552Z,3.50
2023-05-07T07:35:10.633Z,2.80
2023-05-07T07:37:37.493Z,4.70
2023-05-07T07:40:11.322Z,3.90
2023-05-07T07:42:41.593Z,3.80
2023-05-07T07:45:12.250Z,4.90
2023-05-07T07:47:42.157Z,3.00
2023-05-07T07:50:25.180Z,3.60
2023-05-07T07:53:02.222Z,2.60
2023-05-07T07:55:33.366Z,2.70
2023-05-07T07:58:00.885Z,3.90
2023-05-07T08:00:30.070Z,5.30
2023-05-07T08:02:58.195Z,3.80
2023-05-07T08:05:30.448Z,3.40
2023-05-07T08:08:00.607Z,5.00
2023-05-07T08:10:35.227Z,4.10
2023-05-07T08:13:07.806Z,4.90
2023-05-07T08:15:38.962Z,4.00
2023-05-07T08:18:06.045Z,3.20
2023-05-07T08:20:41.216Z,4.00
2023-05-07T08:23:10.095Z,3.70
2023-05-07T08:25:38.316Z,3.20
2023-05-07T08:28:09.904Z,4.00
2023-05-07T08:30:42.264Z,5.60
2023-05-07T08:33:11.591Z,3.30
2023-05-07T08:35:38.399Z,4.00
2023-05-07T08:38:06.260Z,5.50
2023-05-07T08:40:41.252Z,6.10
2023-05-07T08:43:15.747Z,3.00
2023-05-07T08:45:45.958Z,3.90
2023-05-07T08:48:16.504Z,5.00
2023-05-07T08:50:46.123Z,4.50
2023-05-07T08:53:16.820Z,4.10
2023-05-07T08:55:43.823Z,4.30
2023-05-07T08:58:13.778Z,3.20
2023-05-07T09:00:40.987Z,3.60
2023-05-07T09:03:16.326Z,3.80
2023-05-07T09:05:47.428Z,8.60
2023-05-07T09:08:17.551Z,3.00
2023-05-07T09:10:50.573Z,3.30
2023-05-07T09:13:18.506Z,3.10
2023-05-07T09:15:45.726Z,3.50
2023-05-07T09:18:16.704Z,4.70
2023-05-07T09:20:44.688Z,6.00
2023-05-07T09:23:13.668Z,5.60
2023-05-07T09:25:46.057Z,4.60
2023-05-07T09:28:20.946Z,5.40
2023-05-07T09:30:49.820Z,4.40
2023-05-07T09:33:18.861Z,4.00
2023-05-07T09:35:54.282Z,5.00
2023-05-07T09:38:23.202Z,3.50
2023-05-07T09:41:03.831Z,4.70
2023-05-07T09:43:35.900Z,5.50
2023-05-07T09:46:33.797Z,3.50
2023-05-07T09:49:07.710Z,3.90
2023-05-07T09:51:48.046Z,3.10
2023-05-07T09:54:18.766Z,3.70
2023-05-07T09:56:51.278Z,4.00
2023-05-07T09:59:24.230Z,4.30
2023-05-07T10:01:57.637Z,3.40
2023-05-07T10:04:25.575Z,5.60
2023-05-07T10:06:53.879Z,5.70
2023-05-07T10:09:21.982Z,3.70
2023-05-07T10:11:50.518Z,5.20
2023-05-07T10:14:18.060Z,3.80
2023-05-07T10:16:50.694Z,4.70
2023-05-07T10:19:23.151Z,3.10
2023-05-07T10:21:57.281Z,3.30
2023-05-07T10:24:31.858Z,3.40
2023-05-07T10:27:02.998Z,3.90
2023-05-07T10:29:56.180Z,3.40
2023-05-07T10:32:34.284Z,5.20
2023-05-07T10:35:07.080Z,3.90
2023-05-07T10:37:35.206Z,4.00
2023-05-07T10:40:04.828Z,5.10
2023-05-07T10:42:32.170Z,4.20
2023-05-07T10:45:17.309Z,4.00
2023-05-07T10:48:20.889Z,3.60
2023-05-07T10:51:22.336Z,7.20
2023-05-07T10:54:11.638Z,5.00
2023-05-07T10:56:47.976Z,6.60
2023-05-07T10:59:31.682Z,4.30
2023-05-07T11:02:11.854Z,3.10
2023-05-07T11:05:24.057Z,4.60
2023-05-07T11:08:03.116Z,6.90
2023-05-07T11:10:53.846Z,5.20
2023-05-07T11:13:44.895Z,4.00
2023-05-07T11:16:28.688Z,5.40
2023-05-07T11:19:02.382Z,4.80
2023-05-07T11:21:42.321Z,6.90
2023-05-07T11:24:22.423Z,4.70
2023-05-07T11:26:58.948Z,5.70
2023-05-07T11:29:29.419Z,3.80
2023-05-07T11:32:00.579Z,5.30
2023-05-07T11:34:33.538Z,7.10
2023-05-07T11:37:01.213Z,6.20
2023-05-07T11:39:38.264Z,4.50
2023-05-07T11:42:28.420Z,3.90
2023-05-07T11:44:55.075Z,5.00
2023-05-07T11:47:23.930Z,6.70
2023-05-07T11:49:54.275Z,4.30
2023-05-07T11:52:22.713Z,7.20
2023-05-07T11:55:00.037Z,5.20
2023-05-07T11:57:29.349Z,4.80
2023-05-07T11:59:58.907Z,6.40
2023-05-07T12:02:28.544Z,4.00
2023-05-07T12:04:59.964Z,4.80
2023-05-07T12:07:26.652Z,6.70
2023-05-07T12:09:54.346Z,4.20
2023-05-07T12:12:21.164Z,4.60
2023-05-07T12:14:51.647Z,4.20
2023-05-07T12:17:21.542Z,4.50
2023-05-07T12:19:50.997Z,7.20
2023-05-07T12:22:19.793Z,3.60
2023-05-07T12:25:05.958Z,5.00
2023-05-07T12:27:39.882Z,6.20
2023-05-07T12:30:09.842Z,4.50
2023-05-07T12:32:37.187Z,4.70
2023-05-07T12:35:06.840Z,4.40
2023-05-07T12:37:33.733Z,4.50
2023-05-07T12:40:10.630Z,5.20
2023-05-07T12:42:39.280Z,5.50
2023-05-07T12:45:16.674Z,5.00
2023-05-07T12:47:47.247Z,4.50
2023-05-07T12:50:16.994Z,5.40
2023-05-07T12:52:48.003Z,3.70
2023-05-07T12:55:16.628Z,6.20
2023-05-07T12:57:49.070Z,4.30
2023-05-07T13:00:16.364Z,6.70
2023-05-07T13:02:45.970Z,6.40
2023-05-07T13:05:13.065Z,5.20
2023-05-07T13:07:41.058Z,3.80
2023-05-07T14:15:38.291Z,6.00
2023-05-07T14:18:05.762Z,4.80
2023-05-07T14:20:38.303Z,4.00
2023-05-07T14:23:04.916Z,4.40
2023-05-07T14:25:31.680Z,6.70
2023-05-07T14:28:01.230Z,5.60
2023-05-07T14:30:33.063Z,4.70
2023-05-07T14:33:04.758Z,6.50
2023-05-07T14:35:31.880Z,3.90
2023-05-07T14:37:58.730Z,5.20
2023-05-07T14:40:26.231Z,6.80
2023-05-07T14:42:53.175Z,4.40
2023-05-07T14:45:22.018Z,3.90
2023-05-07T14:47:49.194Z,4.40
2023-05-07T14:50:25.888Z,5.00
2023-05-07T14:53:38.782Z,4.70
2023-05-07T15:04:03.967Z,5.00
2023-05-07T15:06:31.679Z,4.00
2023-05-07T15:08:58.449Z,5.30
2023-05-07T15:11:25.290Z,5.90
2023-05-07T15:13:56.094Z,4.00
2023-05-07T15:16:23.113Z,3.90
2023-05-07T15:18:52.216Z,4.10
2023-05-07T15:21:19.126Z,5.10
2023-05-07T15:23:46.186Z,3.50
2023-05-07T15:26:17.641Z,8.30
2023-05-07T15:28:46.392Z,5.00
2023-05-07T15:31:13.853Z,5.50
2023-05-07T15:33:41.223Z,5.80
2023-05-07T15:36:08.054Z,3.70
2023-05-07T15:38:37.376Z,5.40
2023-05-07T15:41:04.024Z,4.40
2023-05-07T15:43:34.431Z,3.60
2023-05-07T15:46:04.927Z,5.30
2023-05-07T15:48:34.839Z,3.60
2023-05-07T15:51:08.195Z,3.80
2023-05-07T15:53:42.189Z,4.70
2023-05-07T15:56:09.272Z,4.20
2023-05-07T15:58:38.780Z,3.70
2023-05-07T16:01:07.564Z,5.60
2023-05-07T16:03:34.458Z,5.30
2023-05-07T16:06:01.131Z,7.00
2023-05-07T16:08:33.659Z,6.70
2023-05-07T16:11:02.773Z,9.10
2023-05-07T16:13:33.615Z,4.70
2023-05-07T16:16:00.448Z,5.30
2023-05-07T16:18:29.482Z,7.50
2023-05-07T16:20:57.345Z,4.20
2023-05-07T16:30:14.391Z,4.40
2023-05-07T16:55:23.713Z,5.40
2023-05-07T16:57:52.190Z,6.80
2023-05-07T17:00:21.574Z,5.50
2023-05-07T17:02:51.028Z,6.60
2023-05-07T17:05:25.047Z,7.40
2023-05-07T17:07:57.036Z,5.90
2023-05-07T17:10:49.937Z,4.60
2023-05-07T17:15:47.942Z,5.50
2023-05-07T17:18:19.743Z,5.00
2023-05-07T17:20:46.990Z,5.00
2023-05-07T17:23:14.984Z,5.20
2023-05-07T17:47:54.299Z,5.50
2023-05-07T18:38:30.242Z,6.80
2023-05-07T18:41:04.548Z,7.10
2023-05-07T18:43:38.363Z,7.30
2023-05-07T18:46:05.733Z,10.10
2023-05-07T18:48:32.356Z,7.30
2023-05-07T18:51:02.911Z,7.80
2023-05-07T18:53:29.667Z,7.50
2023-05-07T18:56:00.226Z,9.20
2023-05-07T19:00:57.523Z,10.80
2023-05-07T19:03:51.620Z,8.30
2023-05-07T19:06:36.284Z,6.30
2023-05-07T19:09:04.524Z,9.10
2023-05-07T19:11:35.380Z,8.30
2023-05-07T19:14:06.307Z,8.40
2023-05-07T19:19:35.179Z,8.70
2023-05-07T19:22:04.445Z,10.80
2023-05-07T19:24:35.560Z,8.30
2023-05-07T19:27:07.807Z,10.00
2023-05-07T19:29:36.598Z,10.40
2023-05-07T19:32:05.799Z,7.90
2023-05-07T19:34:32.650Z,7.40
2023-05-07T19:37:03.713Z,7.90
2023-05-07T19:39:30.209Z,8.30
2023-05-07T20:27:53.570Z,22.90
2023-05-07T20:30:34.814Z,21.30
2023-05-07T20:33:03.361Z,25.50
2023-05-07T20:35:34.779Z,22.40
2023-05-07T20:38:03.628Z,22.60
2023-05-07T20:40:33.158Z,23.50
2023-05-07T20:43:02.814Z,30.30
2023-05-07T20:45:29.421Z,23.60
2023-05-07T20:48:03.287Z,25.10
2023-05-07T20:50:30.206Z,24.30
2023-05-07T20:52:56.813Z,23.40
2023-05-07T20:55:28.659Z,20.80
2023-05-07T20:58:00.424Z,22.50
2023-05-07T21:00:28.307Z,23.40
2023-05-07T21:02:57.534Z,21.20
2023-05-07T21:05:33.236Z,25.60
2023-05-07T21:08:02.125Z,22.90
2023-05-07T21:10:32.881Z,26.40
2023-05-07T21:13:07.262Z,23.50
2023-05-07T21:15:36.450Z,25.30
2023-05-07T21:18:05.835Z,22.80
2023-05-07T21:20:35.409Z,19.90
2023-05-07T21:23:02.293Z,24.20
2023-05-07T21:25:29.136Z,23.40
2023-05-07T21:27:55.904Z,21.70
2023-05-07T21:30:22.662Z,20.30
2023-05-07T21:32:52.362Z,24.20
2023-05-07T21:35:19.451Z,23.00
2023-05-07T21:37:46.556Z,24.10
2023-05-07T21:40:16.132Z,19.60
2023-05-07T21:42:42.688Z,24.60
2023-05-07T21:45:09.954Z,26.00
2023-05-07T21:47:39.092Z,29.40
2023-05-07T21:50:17.196Z,26.70
2023-05-07T21:52:46.363Z,25.00
2023-05-07T21:55:16.705Z,21.40
2023-05-07T21:57:53.752Z,26.20
2023-05-07T22:00:30.743Z,23.90
2023-05-07T22:02:57.346Z,28.00
2023-05-07T22:05:25.984Z,28.10
2023-05-07T22:07:52.603Z,26.40
2023-05-07T22:10:21.929Z,30.00
2023-05-07T22:12:48.609Z,26.60
2023-05-07T22:15:15.335Z,34.50
2023-05-07T22:17:45.213Z,22.60
2023-05-07T22:20:14.528Z,26.50
2023-05-07T22:22:53.024Z,27.10
2023-05-07T22:25:23.444Z,29.90
2023-05-07T22:27:55.714Z,26.70
2023-05-07T22:30:24.541Z,32.70
2023-05-07T22:32:51.146Z,30.60
2023-05-07T22:35:20.627Z,30.40
2023-05-07T22:37:52.076Z,26.40
2023-05-07T22:40:18.701Z,25.80
2023-05-07T22:42:48.063Z,24.40
2023-05-07T22:45:14.779Z,26.00
2023-05-07T22:47:44.230Z,24.30
2023-05-07T22:50:12.173Z,21.60
2023-05-07T22:52:43.898Z,23.10
2023-05-07T22:55:15.191Z,19.80
2023-05-07T22:57:42.186Z,23.90
2023-05-07T23:00:11.584Z,19.60
2023-05-07T23:02:38.585Z,24.10
2023-05-07T23:05:05.579Z,28.10
2023-05-07T23:07:32.085Z,22.50
2023-05-07T23:10:03.906Z,24.40
2023-05-07T23:12:30.639Z,29.60
2023-05-07T23:15:00.270Z,26.30
2023-05-07T23:17:33.710Z,29.50
2023-05-07T23:20:00.354Z,36.00
2023-05-07T23:22:29.794Z,41.20
2023-05-07T23:25:01.043Z,41.90
2023-05-07T23:27:30.385Z,41.70
2023-05-07T23:29:59.131Z,37.80
2023-05-07T23:32:28.380Z,34.30
2023-05-07T23:35:03.300Z,33.70
2023-05-07T23:37:29.801Z,36.50
2023-05-07T23:39:56.247Z,28.60
2023-05-07T23:42:22.696Z,30.40
2023-05-07T23:44:51.418Z,27.00
2023-05-07T23:47:20.889Z,31.80
2023-05-07T23:49:47.568Z,23.90
2023-05-07T23:52:14.210Z,21.10
2023-05-07T23:54:46.196Z,14.80
2023-05-07T23:57:15.722Z,20.20
2023-05-07T23:59:42.428Z,19.80
